Terminal Aerodrome Forecast
Issued by NWS

Home | Current Version | Previous Version | Text Only | Print | Product List | Glossary On
Versions: 1 2 3 4 5 6 7 8 9 10 11 12 13
326
FTUS45 KRIW 111728
TAFCOD
TAF
KCOD 111728Z 1118/1218 03005KT P6SM FEW120 SCT250
     FM120000 VRB05KT P6SM SCT150 BKN250
     FM120600 VRB05KT P6SM SCT080 BKN150
      AMD LTD TO CLD VIS AND WIND=

USA.gov is the U.S. government's official web portal to all federal, state and local government web resources and services.